createdAt,value
2018-07-13T00:00:28.537Z,75.08
2018-07-13T00:02:58.301Z,75.80
2018-07-13T00:06:01.243Z,75.32
2018-07-13T00:08:31.457Z,75.86
2018-07-13T00:11:01.660Z,75.98
2018-07-13T00:13:31.719Z,75.64
2018-07-13T00:16:03.923Z,75.66
2018-07-13T00:18:34.838Z,75.89
2018-07-13T00:21:05.027Z,76.47
2018-07-13T00:23:35.085Z,76.66
2018-07-13T00:26:05.094Z,76.58
2018-07-13T00:28:39.532Z,77.01
2018-07-13T00:31:10.310Z,76.97
2018-07-13T00:33:51.406Z,76.44
2018-07-13T00:36:21.211Z,77.18
2018-07-13T00:39:06.074Z,76.92
2018-07-13T00:41:36.150Z,77.14
2018-07-13T00:44:26.432Z,76.96
2018-07-13T00:47:03.417Z,77.31
2018-07-13T00:49:33.246Z,77.63
2018-07-13T00:52:09.958Z,77.46
2018-07-13T00:54:39.853Z,77.87
2018-07-13T00:57:09.767Z,78.11
2018-07-13T00:59:39.957Z,77.77
2018-07-13T01:02:09.534Z,78.18
2018-07-13T01:04:39.228Z,77.48
2018-07-13T01:07:09.139Z,77.43
2018-07-13T01:09:38.647Z,77.99
2018-07-13T01:12:08.226Z,78.27
2018-07-13T01:14:38.370Z,78.30
2018-07-13T01:17:09.281Z,78.27
2018-07-13T01:19:38.784Z,79.17
2018-07-13T01:22:08.462Z,79.09
2018-07-13T01:24:38.162Z,79.16
2018-07-13T01:27:09.083Z,79.42
2018-07-13T01:29:38.527Z,79.54
2018-07-13T01:32:08.160Z,79.81
2018-07-13T01:34:37.635Z,80.06
2018-07-13T01:37:07.365Z,80.26
2018-07-13T01:39:37.329Z,80.05
2018-07-13T01:42:09.160Z,80.58
2018-07-13T01:44:38.630Z,79.89
2018-07-13T01:47:08.995Z,79.23
2018-07-13T01:49:38.450Z,79.65
2018-07-13T01:52:10.396Z,79.72
2018-07-13T01:54:40.016Z,79.28
2018-07-13T01:57:09.940Z,80.09
2018-07-13T01:59:41.380Z,79.87
2018-07-13T02:02:11.611Z,80.19
2018-07-13T02:04:41.324Z,80.44
2018-07-13T02:07:10.998Z,80.89
2018-07-13T02:09:40.469Z,81.11
2018-07-13T02:12:10.103Z,81.03
2018-07-13T02:14:39.746Z,80.91
2018-07-13T02:17:10.497Z,81.19
2018-07-13T02:19:40.010Z,80.86
2018-07-13T02:22:09.619Z,81.26
2018-07-13T02:24:39.463Z,81.31
2018-07-13T02:27:09.145Z,81.43
2018-07-13T02:29:38.739Z,81.67
2018-07-13T02:32:10.798Z,81.77
2018-07-13T02:34:40.348Z,81.96
2018-07-13T02:37:09.835Z,81.71
2018-07-13T02:39:39.365Z,81.68
2018-07-13T02:42:08.890Z,81.51
2018-07-13T02:44:38.512Z,81.63
2018-07-13T02:47:08.487Z,81.79
2018-07-13T02:49:38.847Z,81.68
2018-07-13T02:52:08.402Z,82.06
2018-07-13T02:54:38.429Z,81.86
2018-07-13T02:59:37.871Z,82.78
2018-07-13T03:02:08.815Z,82.39
2018-07-13T03:04:38.524Z,82.58
2018-07-13T03:07:08.474Z,82.72
2018-07-13T03:09:38.022Z,83.03
2018-07-13T03:18:12.578Z,82.33
2018-07-13T03:20:42.090Z,81.73
2018-07-13T03:23:11.895Z,81.54
2018-07-13T03:25:41.692Z,81.67
2018-07-13T03:28:11.538Z,82.26
2018-07-13T03:30:41.559Z,82.15
2018-07-13T03:33:11.474Z,81.98
2018-07-13T03:35:41.696Z,82.24
2018-07-13T03:38:11.495Z,82.03
2018-07-13T03:40:41.090Z,82.54
2018-07-13T03:43:20.359Z,82.57
2018-07-13T03:45:53.821Z,81.95
2018-07-13T03:48:24.891Z,81.96
2018-07-13T03:50:54.838Z,82.32
2018-07-13T03:53:24.434Z,82.04
2018-07-13T03:55:54.207Z,82.00
2018-07-13T03:58:24.046Z,81.55
2018-07-13T04:00:53.721Z,82.19
2018-07-13T04:03:24.214Z,82.08
2018-07-13T04:05:54.064Z,82.19
2018-07-13T04:08:24.146Z,81.77
2018-07-13T04:10:53.993Z,82.12
2018-07-13T04:13:24.040Z,81.38
2018-07-13T04:15:53.863Z,81.93
2018-07-13T04:18:24.688Z,81.66
2018-07-13T04:20:54.667Z,81.90
2018-07-13T04:23:24.920Z,82.09
2018-07-13T04:25:54.490Z,81.37
2018-07-13T04:28:28.106Z,81.15
2018-07-13T04:30:57.606Z,81.58
2018-07-13T04:33:27.212Z,80.87
2018-07-13T04:35:56.643Z,80.94
2018-07-13T04:38:26.267Z,80.75
2018-07-13T04:40:55.798Z,80.26
2018-07-13T04:43:25.795Z,80.45
2018-07-13T04:45:55.544Z,80.37
2018-07-13T04:48:25.312Z,80.49
2018-07-13T04:50:55.002Z,79.96
2018-07-13T04:53:25.408Z,79.96
2018-07-13T04:55:55.013Z,80.00
2018-07-13T04:58:24.775Z,79.69
2018-07-13T05:00:54.398Z,79.54
2018-07-13T05:03:25.787Z,79.45
2018-07-13T05:05:55.854Z,78.95
2018-07-13T05:08:25.931Z,78.61
2018-07-13T05:10:57.771Z,78.23
2018-07-13T05:13:27.534Z,78.09
2018-07-13T05:15:57.736Z,77.63
2018-07-13T05:18:27.674Z,76.35
2018-07-13T05:20:58.853Z,76.47
2018-07-13T05:23:28.615Z,76.07
2018-07-13T05:25:58.192Z,75.58
2018-07-13T05:28:28.169Z,75.22
2018-07-13T05:30:58.506Z,74.36
2018-07-13T05:33:28.121Z,74.10
2018-07-13T05:35:58.879Z,73.73
2018-07-13T05:38:28.486Z,73.60
2018-07-13T05:40:58.118Z,73.39
2018-07-13T05:43:27.906Z,72.81
2018-07-13T05:45:58.359Z,72.24
2018-07-13T05:48:30.703Z,71.45
2018-07-13T05:51:00.649Z,70.75
2018-07-13T05:53:30.426Z,71.14
2018-07-13T05:56:00.075Z,71.54
2018-07-13T05:58:30.792Z,71.34
2018-07-13T06:01:08.815Z,70.78
2018-07-13T06:03:38.364Z,70.13
2018-07-13T06:06:07.963Z,69.85
2018-07-13T06:08:37.712Z,68.96
2018-07-13T06:11:08.061Z,68.38
2018-07-13T06:13:37.557Z,67.64
2018-07-13T06:16:06.963Z,66.36
2018-07-13T06:18:36.852Z,67.08
2018-07-13T06:21:07.141Z,66.00
2018-07-13T06:23:36.695Z,66.35
2018-07-13T06:26:06.536Z,65.15
2018-07-13T06:28:36.014Z,65.46
2018-07-13T06:31:05.559Z,65.03
2018-07-13T06:33:36.689Z,64.48
2018-07-13T06:36:06.198Z,63.48
2018-07-13T06:38:36.914Z,63.29
2018-07-13T06:41:09.433Z,62.18
2018-07-13T06:43:39.329Z,61.98
2018-07-13T06:46:08.813Z,62.28
2018-07-13T06:48:38.683Z,60.93
2018-07-13T06:51:08.165Z,60.21
2018-07-13T06:54:38.427Z,60.14
2018-07-13T06:57:08.412Z,59.22
2018-07-13T06:59:38.089Z,58.62
2018-07-13T07:02:08.527Z,58.08
2018-07-13T07:04:39.788Z,58.25
2018-07-13T07:07:12.845Z,57.29
2018-07-13T07:09:46.185Z,57.47
2018-07-13T07:13:25.106Z,56.11
2018-07-13T07:15:54.674Z,56.45
2018-07-13T07:18:24.463Z,55.17
2018-07-13T07:20:54.418Z,54.56
2018-07-13T07:23:24.429Z,54.30
2018-07-13T07:25:55.157Z,54.31
2018-07-13T07:28:24.666Z,54.13
2018-07-13T07:31:40.236Z,53.59
2018-07-13T07:34:12.154Z,51.97
2018-07-13T07:36:41.726Z,52.91
2018-07-13T07:39:12.653Z,51.96
2018-07-13T07:41:45.615Z,51.36
2018-07-13T07:44:15.221Z,51.47
2018-07-13T07:46:44.789Z,50.93
2018-07-13T07:49:18.938Z,50.78
2018-07-13T07:51:48.442Z,50.22
2018-07-13T07:54:17.944Z,49.59
2018-07-13T07:56:48.734Z,49.22
2018-07-13T07:59:18.781Z,48.72
2018-07-13T08:01:48.553Z,49.00
2018-07-13T08:04:30.744Z,48.30
2018-07-13T08:07:00.757Z,49.35
2018-07-13T08:09:29.870Z,47.16
2018-07-13T08:12:03.401Z,47.12
2018-07-13T08:14:32.971Z,46.77
2018-07-13T08:17:02.797Z,47.02
2018-07-13T08:19:34.885Z,46.99
2018-07-13T08:22:12.884Z,46.01
2018-07-13T08:24:44.052Z,45.53
2018-07-13T08:27:20.959Z,46.11
2018-07-13T08:29:50.895Z,44.29
2018-07-13T08:32:20.566Z,44.02
2018-07-13T08:35:00.174Z,45.45
2018-07-13T08:37:30.984Z,43.56
2018-07-13T08:40:01.249Z,41.74
2018-07-13T08:42:33.851Z,41.40
2018-07-13T08:45:03.825Z,39.78
2018-07-13T08:47:33.945Z,37.31
2018-07-13T08:50:12.672Z,35.97
2018-07-13T08:52:42.614Z,34.31
2018-07-13T08:55:14.066Z,32.17
2018-07-13T08:57:51.861Z,32.46
2018-07-13T09:00:26.836Z,31.12
2018-07-13T09:02:57.234Z,30.74
2018-07-13T09:05:27.252Z,30.97
2018-07-13T09:07:56.961Z,29.58
2018-07-13T09:10:32.367Z,30.52
2018-07-13T09:13:03.103Z,31.76
2018-07-13T09:15:32.798Z,29.87
2018-07-13T09:18:02.963Z,28.96
2018-07-13T09:20:32.631Z,29.57
2018-07-13T09:23:02.824Z,28.19
2018-07-13T09:25:37.316Z,28.54
2018-07-13T09:28:07.096Z,27.89
2018-07-13T09:30:36.835Z,30.65
2018-07-13T09:38:30.406Z,27.43
2018-07-13T09:40:59.945Z,26.62
2018-07-13T09:43:29.563Z,25.90
2018-07-13T09:46:01.951Z,26.23
2018-07-13T09:48:31.909Z,25.19
2018-07-13T09:51:01.653Z,24.90
2018-07-13T09:57:03.189Z,23.66
2018-07-13T09:59:42.434Z,23.97
2018-07-13T10:02:12.258Z,23.51
2018-07-13T10:04:46.476Z,23.69
2018-07-13T10:07:16.286Z,23.62
2018-07-13T10:09:45.845Z,23.33
2018-07-13T10:12:15.701Z,22.07
2018-07-13T10:14:46.303Z,22.12
2018-07-13T10:17:17.706Z,22.60
2018-07-13T10:19:55.059Z,21.36
2018-07-13T10:22:28.613Z,21.02
2018-07-13T10:25:00.691Z,21.79
2018-07-13T10:27:36.349Z,22.06
2018-07-13T10:30:07.737Z,24.25
2018-07-13T10:32:37.765Z,23.55
2018-07-13T10:35:08.679Z,24.21
2018-07-13T10:37:38.920Z,24.95
2018-07-13T10:40:08.517Z,27.81
2018-07-13T10:42:40.543Z,27.54
2018-07-13T10:45:09.968Z,27.58
2018-07-13T10:47:39.525Z,26.70
2018-07-13T10:50:10.280Z,27.28
2018-07-13T10:52:39.846Z,27.50
2018-07-13T10:55:14.156Z,25.70
2018-07-13T10:57:43.867Z,26.78
2018-07-13T11:00:13.516Z,29.00
2018-07-13T11:02:43.094Z,31.61
2018-07-13T11:05:16.402Z,31.43
2018-07-13T11:07:46.099Z,29.58
2018-07-13T11:10:26.351Z,29.51
2018-07-13T11:12:56.165Z,29.02
2018-07-13T11:15:26.942Z,30.17
2018-07-13T11:17:59.068Z,30.07
2018-07-13T11:20:31.079Z,28.67
2018-07-13T11:23:00.629Z,28.04
2018-07-13T11:25:30.208Z,27.06
2018-07-13T11:28:01.069Z,26.86
2018-07-13T11:30:30.609Z,26.23
2018-07-13T11:33:01.351Z,26.55
2018-07-13T11:35:30.830Z,27.18
2018-07-13T11:38:02.848Z,27.23
2018-07-13T11:40:32.426Z,25.43
2018-07-13T11:43:02.141Z,25.40
2018-07-13T11:45:31.711Z,24.87
2018-07-13T11:50:58.001Z,23.07
2018-07-13T11:53:27.600Z,22.66
2018-07-13T11:55:57.447Z,24.47
2018-07-13T11:58:27.063Z,26.03
2018-07-13T12:00:56.847Z,27.91
2018-07-13T12:03:26.495Z,28.87
2018-07-13T12:05:57.412Z,30.94
2018-07-13T12:08:27.056Z,30.40
2018-07-13T12:10:56.569Z,29.65
2018-07-13T12:13:26.189Z,30.39
2018-07-13T12:15:55.849Z,31.03
2018-07-13T12:18:35.967Z,30.25
2018-07-13T12:21:05.725Z,30.23
2018-07-13T12:23:35.466Z,30.99
2018-07-13T12:26:06.399Z,30.30
2018-07-13T12:28:36.347Z,31.54
2018-07-13T12:31:12.944Z,30.51
2018-07-13T12:33:42.906Z,30.33
2018-07-13T12:39:12.901Z,30.78
2018-07-13T12:41:42.635Z,30.84
2018-07-13T12:44:18.812Z,30.49
2018-07-13T12:46:48.535Z,30.07
2018-07-13T12:49:18.145Z,29.80
2018-07-13T12:51:47.760Z,29.53
2018-07-13T12:54:18.696Z,29.97
2018-07-13T13:01:52.665Z,29.75
2018-07-13T13:04:23.912Z,29.07
2018-07-13T13:06:56.159Z,27.67
2018-07-13T13:09:25.929Z,29.35
2018-07-13T13:11:57.039Z,27.66
2018-07-13T13:17:19.605Z,26.12
2018-07-13T13:19:57.012Z,26.97
2018-07-13T13:22:26.526Z,26.21
2018-07-13T13:28:17.983Z,26.95
2018-07-13T13:30:47.590Z,26.26
2018-07-13T13:33:17.384Z,27.52
2018-07-13T13:38:40.537Z,26.96
2018-07-13T13:41:10.992Z,25.60
2018-07-13T13:43:42.651Z,26.32
2018-07-13T13:46:15.480Z,25.44
2018-07-13T13:48:45.213Z,23.46
2018-07-13T13:51:15.413Z,23.27
2018-07-13T13:53:49.204Z,23.68
2018-07-13T13:56:26.267Z,22.81
2018-07-13T13:58:57.379Z,23.17
2018-07-13T14:04:03.376Z,24.61
2018-07-13T14:06:40.304Z,24.05
2018-07-13T14:09:11.287Z,24.74
2018-07-13T14:11:44.703Z,24.63
2018-07-13T14:14:20.605Z,23.31
2018-07-13T14:16:51.418Z,22.57
2018-07-13T14:19:21.583Z,20.55
2018-07-13T14:21:51.547Z,18.49
2018-07-13T14:24:22.835Z,17.70
2018-07-13T14:30:03.371Z,15.17
2018-07-13T14:32:50.142Z,16.07
2018-07-13T14:35:24.264Z,14.68
2018-07-13T14:37:55.392Z,15.35
2018-07-13T14:40:47.952Z,15.69
2018-07-13T14:43:18.411Z,13.93
2018-07-13T14:45:51.028Z,14.53
2018-07-13T14:48:20.567Z,14.95
2018-07-13T14:50:50.470Z,15.05
2018-07-13T14:53:21.604Z,15.08
2018-07-13T14:55:51.133Z,15.10
2018-07-13T14:58:20.807Z,16.04
2018-07-13T15:00:50.509Z,18.03
2018-07-13T15:03:26.637Z,20.49
2018-07-13T15:05:56.445Z,20.45
2018-07-13T15:08:31.940Z,21.89
2018-07-13T15:11:01.736Z,23.53
2018-07-13T15:13:31.287Z,22.30
2018-07-13T15:16:09.759Z,20.21
2018-07-13T15:18:40.025Z,20.37
2018-07-13T15:21:09.934Z,21.19
2018-07-13T15:23:40.812Z,22.12
2018-07-13T15:26:10.414Z,21.05
2018-07-13T15:28:39.853Z,22.47
2018-07-13T15:31:09.292Z,20.39
2018-07-13T15:33:39.420Z,17.66
2018-07-13T15:36:09.115Z,17.67
2018-07-13T15:38:40.294Z,18.08
2018-07-13T15:41:09.918Z,16.15
2018-07-13T15:43:39.416Z,17.47
2018-07-13T15:46:09.853Z,17.65
2018-07-13T15:48:42.223Z,19.52
2018-07-13T15:51:11.857Z,22.27
2018-07-13T15:53:41.472Z,22.59
2018-07-13T15:56:10.989Z,23.77
2018-07-13T15:58:40.989Z,25.16
2018-07-13T16:01:10.794Z,25.38
2018-07-13T16:03:40.302Z,24.60
2018-07-13T16:06:09.766Z,25.03
2018-07-13T16:08:39.641Z,25.08
2018-07-13T16:11:09.547Z,25.98
2018-07-13T16:13:39.141Z,26.65
2018-07-13T16:16:08.779Z,26.51
2018-07-13T16:18:39.777Z,24.98
2018-07-13T16:21:09.347Z,25.52
2018-07-13T16:23:41.485Z,25.69
2018-07-13T16:26:11.118Z,25.88
2018-07-13T16:28:40.934Z,25.87
2018-07-13T16:31:11.269Z,26.17
2018-07-13T16:33:41.668Z,26.60
2018-07-13T16:36:11.617Z,26.71
2018-07-13T16:38:46.921Z,27.40
2018-07-13T16:41:16.595Z,26.47
2018-07-13T16:43:46.692Z,25.82
2018-07-13T16:46:25.245Z,25.88
2018-07-13T16:48:54.873Z,26.22
2018-07-13T16:51:25.506Z,26.74
2018-07-13T16:53:55.075Z,26.16
2018-07-13T16:56:25.968Z,26.69
2018-07-13T16:58:55.380Z,26.90
2018-07-13T17:01:24.888Z,27.44
2018-07-13T17:03:54.666Z,28.61
2018-07-13T17:06:24.312Z,28.49
2018-07-13T17:08:57.499Z,29.46
2018-07-13T17:12:02.523Z,29.23
2018-07-13T17:14:32.962Z,29.77
2018-07-13T17:17:03.190Z,30.37
2018-07-13T17:19:35.042Z,31.08
2018-07-13T17:22:04.514Z,30.96
2018-07-13T17:24:34.642Z,30.70
2018-07-13T17:27:04.459Z,31.15
2018-07-13T17:29:39.764Z,30.84
2018-07-13T17:32:09.328Z,31.92
2018-07-13T17:34:39.442Z,32.32
2018-07-13T17:37:10.435Z,32.01
2018-07-13T17:39:41.480Z,32.12
2018-07-13T17:42:10.950Z,32.46
2018-07-13T17:44:41.161Z,32.91
2018-07-13T17:47:10.562Z,32.53
2018-07-13T17:49:41.729Z,33.49
2018-07-13T17:52:11.145Z,32.65
2018-07-13T17:54:40.781Z,31.97
2018-07-13T17:57:10.261Z,31.80
2018-07-13T17:59:40.990Z,32.87
2018-07-13T18:02:10.389Z,32.90
2018-07-13T18:04:40.218Z,34.33
2018-07-13T18:07:09.909Z,34.52
2018-07-13T18:09:41.780Z,34.90
2018-07-13T18:12:11.235Z,33.24
2018-07-13T18:14:40.940Z,34.14
2018-07-13T18:17:10.503Z,34.30
2018-07-13T18:21:15.685Z,33.76
2018-07-13T18:23:45.417Z,35.23
2018-07-13T18:29:18.494Z,34.80
2018-07-13T18:35:22.190Z,37.93
2018-07-13T18:38:07.540Z,39.17
2018-07-13T18:40:52.967Z,39.71
2018-07-13T18:43:26.559Z,39.65
2018-07-13T18:46:00.565Z,41.37
2018-07-13T18:48:37.548Z,41.80
2018-07-13T18:51:21.351Z,40.36
2018-07-13T18:53:53.422Z,42.14
2018-07-13T18:56:25.066Z,43.31
2018-07-13T18:58:56.336Z,43.45
2018-07-13T19:01:33.098Z,43.08
2018-07-13T19:04:05.814Z,42.80
2018-07-13T19:06:35.794Z,43.26
2018-07-13T19:09:11.113Z,43.23
2018-07-13T19:11:47.130Z,43.35
2018-07-13T19:14:25.246Z,44.31
2018-07-13T19:17:01.015Z,44.00
2018-07-13T19:19:35.661Z,43.89
2018-07-13T19:22:09.791Z,45.50
2018-07-13T19:25:45.673Z,44.31
2018-07-13T19:28:22.404Z,45.54
2018-07-13T19:30:59.313Z,46.26
2018-07-13T19:33:32.649Z,46.65
2018-07-13T19:36:06.505Z,47.30
2018-07-13T19:38:41.278Z,47.15
2018-07-13T19:44:00.172Z,48.09
2018-07-13T19:46:37.504Z,48.43
2018-07-13T19:49:18.018Z,49.58
2018-07-13T19:51:50.539Z,48.53
2018-07-13T19:54:21.989Z,48.26
2018-07-13T19:56:55.607Z,48.44
2018-07-13T19:59:34.212Z,49.33
2018-07-13T20:02:07.743Z,48.84
2018-07-13T20:04:40.594Z,49.72
2018-07-13T20:07:19.779Z,50.93
2018-07-13T20:09:52.664Z,52.15
2018-07-13T20:12:24.813Z,51.99
2018-07-13T20:14:55.768Z,50.87
2018-07-13T20:17:29.044Z,51.61
2018-07-13T20:20:19.701Z,52.06
2018-07-13T20:22:54.287Z,51.95
2018-07-13T20:25:43.442Z,52.09
2018-07-13T20:28:21.142Z,52.24
2018-07-13T20:31:02.210Z,52.17
2018-07-13T20:33:50.850Z,51.82
2018-07-13T20:36:38.532Z,51.93
2018-07-13T20:39:13.288Z,52.84
2018-07-13T20:41:50.580Z,52.66
2018-07-13T20:44:23.208Z,53.10
2018-07-13T20:47:03.269Z,53.40
2018-07-13T20:49:48.961Z,53.72
2018-07-13T20:52:52.359Z,53.91
2018-07-13T21:01:31.265Z,55.07
2018-07-13T21:04:14.909Z,55.65
2018-07-13T21:07:21.781Z,56.15
2018-07-13T21:12:58.654Z,56.18
2018-07-13T21:15:42.007Z,56.43
2018-07-13T21:18:17.049Z,56.33
2018-07-13T21:20:48.836Z,56.91
2018-07-13T21:23:26.073Z,57.82
2018-07-13T21:29:29.010Z,57.74
2018-07-13T21:32:20.181Z,58.73
2018-07-13T21:38:13.209Z,58.94
2018-07-13T21:41:42.773Z,59.13
2018-07-13T22:19:48.484Z,61.76
2018-07-13T22:23:21.860Z,62.00
2018-07-13T22:34:45.141Z,63.35
2018-07-13T22:43:30.266Z,63.87
2018-07-13T22:57:19.634Z,64.10
2018-07-13T23:08:45.525Z,64.63
2018-07-13T23:11:33.020Z,64.80
2018-07-13T23:32:27.610Z,66.87
2018-07-13T23:34:57.986Z,66.93
2018-07-13T23:37:34.777Z,66.92
2018-07-13T23:40:09.414Z,66.99
2018-07-13T23:42:40.665Z,66.96
2018-07-13T23:45:13.519Z,67.20
2018-07-13T23:47:43.420Z,67.26
2018-07-13T23:50:13.264Z,67.33
2018-07-13T23:52:45.893Z,67.56
2018-07-13T23:55:15.829Z,67.60
2018-07-13T23:57:48.452Z,67.94
